Creswell, Oregon
Current Conditions -  °F | °C
As of 7:54 PM on Wednesday 22 Oct 2014 (Local Time) from KEUG Reporting Station
Haze Haze  
Wind Chill: 56°   Ceiling: 3800
Heat Index: 56°   Visibility: 3mi
Dew Point: 54°   Wind: 7mph
Humidity: 93%   Direction: 200°SSW
Pressure: 29.78"   Gusts: NA
Location:  43.92°N, 123.02°W
Report Text: KEUG 230254Z 20006KT 3SM BR FEW020 BKN038 OVC049 13/12 A2978 RMK AO2 TWR VIS 4 RAE52 SLP084 P0026 60081 T01330122 51004
Loading
Personal Weather Stations






























Interactive Weather Map
Tropical Storm Tracking
New forecast layout! Learn more

10-Day Weather Forecast

Advertisements
Track Severe Weather on mobile